sensor_id;sensor_type;location;lat;lon;timestamp;P1;durP1;ratioP1;P2;durP2;ratioP2
17818;SDS011;9034;50.284;19.310;2023-07-08T00:00:57;7.75;;;6.80;;
17818;SDS011;9034;50.284;19.310;2023-07-08T00:01:59;10.40;;;7.60;;
17818;SDS011;9034;50.284;19.310;2023-07-08T00:03:03;8.68;;;7.63;;
17818;SDS011;9034;50.284;19.310;2023-07-08T00:04:04;6.95;;;6.25;;
17818;SDS011;9034;50.284;19.310;2023-07-08T00:05:09;7.38;;;6.18;;
17818;SDS011;9034;50.284;19.310;2023-07-08T00:06:14;6.07;;;5.45;;
17818;SDS011;9034;50.284;19.310;2023-07-08T00:07:19;7.38;;;5.55;;
17818;SDS011;9034;50.284;19.310;2023-07-08T00:08:22;6.07;;;4.97;;
17818;SDS011;9034;50.284;19.310;2023-07-08T00:09:25;5.28;;;4.43;;
17818;SDS011;9034;50.284;19.310;2023-07-08T00:10:27;5.68;;;4.65;;
17818;SDS011;9034;50.284;19.310;2023-07-08T00:11:31;6.03;;;5.43;;
17818;SDS011;9034;50.284;19.310;2023-07-08T00:12:33;8.73;;;5.60;;
17818;SDS011;9034;50.284;19.310;2023-07-08T00:13:36;10.25;;;5.68;;
17818;SDS011;9034;50.284;19.310;2023-07-08T00:14:37;6.03;;;5.45;;
17818;SDS011;9034;50.284;19.310;2023-07-08T00:15:41;7.85;;;5.30;;
17818;SDS011;9034;50.284;19.310;2023-07-08T00:16:44;6.47;;;5.75;;
17818;SDS011;9034;50.284;19.310;2023-07-08T00:17:47;7.28;;;6.00;;
17818;SDS011;9034;50.284;19.310;2023-07-08T00:18:49;6.75;;;6.15;;
17818;SDS011;9034;50.284;19.310;2023-07-08T00:19:52;5.57;;;5.03;;
17818;SDS011;9034;50.284;19.310;2023-07-08T00:20:56;5.93;;;5.32;;
17818;SDS011;9034;50.284;19.310;2023-07-08T00:22:00;4.68;;;4.18;;
17818;SDS011;9034;50.284;19.310;2023-07-08T00:23:02;5.10;;;4.60;;
17818;SDS011;9034;50.284;19.310;2023-07-08T00:24:05;6.00;;;5.40;;
17818;SDS011;9034;50.284;19.310;2023-07-08T00:25:08;8.88;;;4.78;;
17818;SDS011;9034;50.284;19.310;2023-07-08T00:26:11;5.47;;;4.80;;
17818;SDS011;9034;50.284;19.310;2023-07-08T00:27:17;5.22;;;4.20;;
17818;SDS011;9034;50.284;19.310;2023-07-08T00:28:20;12.20;;;4.50;;
17818;SDS011;9034;50.284;19.310;2023-07-08T00:29:22;5.60;;;5.00;;
17818;SDS011;9034;50.284;19.310;2023-07-08T00:30:26;8.43;;;5.80;;
17818;SDS011;9034;50.284;19.310;2023-07-08T00:31:29;6.32;;;5.72;;
17818;SDS011;9034;50.284;19.310;2023-07-08T00:32:35;5.75;;;4.95;;
17818;SDS011;9034;50.284;19.310;2023-07-08T00:33:43;5.20;;;4.60;;
17818;SDS011;9034;50.284;19.310;2023-07-08T00:34:46;8.25;;;5.20;;
17818;SDS011;9034;50.284;19.310;2023-07-08T00:35:48;5.47;;;4.95;;
17818;SDS011;9034;50.284;19.310;2023-07-08T00:36:51;6.78;;;6.18;;
17818;SDS011;9034;50.284;19.310;2023-07-08T00:37:53;7.28;;;5.45;;
17818;SDS011;9034;50.284;19.310;2023-07-08T00:39:02;6.00;;;5.18;;
17818;SDS011;9034;50.284;19.310;2023-07-08T00:40:11;6.90;;;5.57;;
17818;SDS011;9034;50.284;19.310;2023-07-08T00:41:18;5.97;;;5.38;;
17818;SDS011;9034;50.284;19.310;2023-07-08T00:42:23;8.15;;;5.68;;
17818;SDS011;9034;50.284;19.310;2023-07-08T00:43:30;10.80;;;6.03;;
17818;SDS011;9034;50.284;19.310;2023-07-08T00:44:36;6.03;;;5.40;;
17818;SDS011;9034;50.284;19.310;2023-07-08T00:45:41;7.95;;;6.82;;
17818;SDS011;9034;50.284;19.310;2023-07-08T00:47:03;6.72;;;5.95;;
17818;SDS011;9034;50.284;19.310;2023-07-08T00:48:11;9.02;;;6.65;;
17818;SDS011;9034;50.284;19.310;2023-07-08T00:49:21;9.50;;;7.00;;
17818;SDS011;9034;50.284;19.310;2023-07-08T00:50:27;8.10;;;7.28;;
17818;SDS011;9034;50.284;19.310;2023-07-08T00:51:29;10.23;;;7.55;;
17818;SDS011;9034;50.284;19.310;2023-07-08T00:52:33;18.73;;;14.15;;
17818;SDS011;9034;50.284;19.310;2023-07-08T00:53:35;21.00;;;16.40;;
17818;SDS011;9034;50.284;19.310;2023-07-08T00:54:39;11.95;;;10.15;;
17818;SDS011;9034;50.284;19.310;2023-07-08T00:55:41;8.15;;;7.35;;
17818;SDS011;9034;50.284;19.310;2023-07-08T00:56:44;7.70;;;6.80;;
17818;SDS011;9034;50.284;19.310;2023-07-08T00:57:48;7.40;;;6.60;;
17818;SDS011;9034;50.284;19.310;2023-07-08T00:58:52;7.07;;;6.38;;
17818;SDS011;9034;50.284;19.310;2023-07-08T00:59:56;9.75;;;6.32;;
17818;SDS011;9034;50.284;19.310;2023-07-08T01:01:03;8.20;;;6.82;;
17818;SDS011;9034;50.284;19.310;2023-07-08T01:02:07;6.95;;;6.13;;
17818;SDS011;9034;50.284;19.310;2023-07-08T01:03:13;8.32;;;6.10;;
17818;SDS011;9034;50.284;19.310;2023-07-08T01:04:16;8.65;;;6.75;;
17818;SDS011;9034;50.284;19.310;2023-07-08T01:05:21;7.38;;;5.95;;
17818;SDS011;9034;50.284;19.310;2023-07-08T01:06:25;7.15;;;6.40;;
17818;SDS011;9034;50.284;19.310;2023-07-08T01:07:32;9.18;;;6.00;;
17818;SDS011;9034;50.284;19.310;2023-07-08T01:08:37;12.73;;;6.63;;
17818;SDS011;9034;50.284;19.310;2023-07-08T01:09:41;7.60;;;6.78;;
17818;SDS011;9034;50.284;19.310;2023-07-08T01:10:46;7.50;;;6.70;;
17818;SDS011;9034;50.284;19.310;2023-07-08T01:11:55;11.68;;;8.60;;
17818;SDS011;9034;50.284;19.310;2023-07-08T01:13:00;9.95;;;8.65;;
17818;SDS011;9034;50.284;19.310;2023-07-08T01:14:05;11.52;;;8.27;;
17818;SDS011;9034;50.284;19.310;2023-07-08T01:15:09;12.02;;;9.73;;
17818;SDS011;9034;50.284;19.310;2023-07-08T01:16:13;14.93;;;11.23;;
17818;SDS011;9034;50.284;19.310;2023-07-08T01:17:17;18.00;;;12.88;;
17818;SDS011;9034;50.284;19.310;2023-07-08T01:18:22;9.18;;;7.68;;
17818;SDS011;9034;50.284;19.310;2023-07-08T01:19:26;7.38;;;6.63;;
17818;SDS011;9034;50.284;19.310;2023-07-08T01:20:34;7.28;;;6.57;;
17818;SDS011;9034;50.284;19.310;2023-07-08T01:21:37;6.35;;;5.72;;
17818;SDS011;9034;50.284;19.310;2023-07-08T01:22:43;6.18;;;5.47;;
17818;SDS011;9034;50.284;19.310;2023-07-08T01:23:45;7.88;;;5.68;;
17818;SDS011;9034;50.284;19.310;2023-07-08T01:24:48;6.80;;;6.20;;
17818;SDS011;9034;50.284;19.310;2023-07-08T01:25:50;6.97;;;5.90;;
17818;SDS011;9034;50.284;19.310;2023-07-08T01:26:53;6.80;;;6.07;;
17818;SDS011;9034;50.284;19.310;2023-07-08T01:27:55;6.85;;;5.40;;
17818;SDS011;9034;50.284;19.310;2023-07-08T01:29:00;6.20;;;5.60;;
17818;SDS011;9034;50.284;19.310;2023-07-08T01:30:04;6.68;;;5.85;;
17818;SDS011;9034;50.284;19.310;2023-07-08T01:31:08;6.00;;;5.38;;
17818;SDS011;9034;50.284;19.310;2023-07-08T01:32:11;8.00;;;5.63;;
17818;SDS011;9034;50.284;19.310;2023-07-08T01:33:16;6.88;;;5.85;;
17818;SDS011;9034;50.284;19.310;2023-07-08T01:34:19;7.78;;;6.35;;
17818;SDS011;9034;50.284;19.310;2023-07-08T01:35:22;7.35;;;6.03;;
17818;SDS011;9034;50.284;19.310;2023-07-08T01:36:24;6.40;;;5.80;;
17818;SDS011;9034;50.284;19.310;2023-07-08T01:37:29;6.60;;;5.88;;
17818;SDS011;9034;50.284;19.310;2023-07-08T01:38:35;6.45;;;5.85;;
17818;SDS011;9034;50.284;19.310;2023-07-08T01:39:39;6.88;;;5.20;;
17818;SDS011;9034;50.284;19.310;2023-07-08T01:40:47;6.15;;;5.53;;
17818;SDS011;9034;50.284;19.310;2023-07-08T01:41:50;6.18;;;5.57;;
17818;SDS011;9034;50.284;19.310;2023-07-08T01:42:55;5.68;;;5.07;;
17818;SDS011;9034;50.284;19.310;2023-07-08T01:43:57;5.40;;;4.90;;
17818;SDS011;9034;50.284;19.310;2023-07-08T01:45:00;5.25;;;4.72;;
17818;SDS011;9034;50.284;19.310;2023-07-08T01:46:02;5.25;;;4.85;;
17818;SDS011;9034;50.284;19.310;2023-07-08T01:47:07;5.88;;;5.10;;
17818;SDS011;9034;50.284;19.310;2023-07-08T01:48:12;8.55;;;4.85;;
17818;SDS011;9034;50.284;19.310;2023-07-08T01:49:16;5.53;;;5.03;;
17818;SDS011;9034;50.284;19.310;2023-07-08T01:50:19;6.13;;;5.05;;
17818;SDS011;9034;50.284;19.310;2023-07-08T01:51:23;5.72;;;5.00;;
17818;SDS011;9034;50.284;19.310;2023-07-08T01:52:26;4.97;;;4.25;;
17818;SDS011;9034;50.284;19.310;2023-07-08T01:53:29;6.10;;;5.05;;
17818;SDS011;9034;50.284;19.310;2023-07-08T01:54:34;6.53;;;5.20;;
17818;SDS011;9034;50.284;19.310;2023-07-08T01:55:38;9.45;;;5.15;;
17818;SDS011;9034;50.284;19.310;2023-07-08T01:56:40;6.97;;;4.32;;
17818;SDS011;9034;50.284;19.310;2023-07-08T01:57:43;5.05;;;4.63;;
17818;SDS011;9034;50.284;19.310;2023-07-08T01:58:45;6.28;;;4.55;;
17818;SDS011;9034;50.284;19.310;2023-07-08T01:59:48;4.90;;;4.47;;
17818;SDS011;9034;50.284;19.310;2023-07-08T02:00:50;8.10;;;3.50;;
17818;SDS011;9034;50.284;19.310;2023-07-08T02:01:53;4.57;;;4.03;;
17818;SDS011;9034;50.284;19.310;2023-07-08T02:02:57;4.38;;;3.97;;
17818;SDS011;9034;50.284;19.310;2023-07-08T02:04:00;5.25;;;4.40;;
17818;SDS011;9034;50.284;19.310;2023-07-08T02:05:02;5.53;;;4.80;;
17818;SDS011;9034;50.284;19.310;2023-07-08T02:06:05;6.18;;;4.55;;
17818;SDS011;9034;50.284;19.310;2023-07-08T02:07:07;5.20;;;4.78;;
17818;SDS011;9034;50.284;19.310;2023-07-08T02:08:10;5.60;;;5.05;;
17818;SDS011;9034;50.284;19.310;2023-07-08T02:09:12;6.68;;;4.70;;
17818;SDS011;9034;50.284;19.310;2023-07-08T02:10:16;5.20;;;4.70;;
17818;SDS011;9034;50.284;19.310;2023-07-08T02:11:18;6.57;;;4.57;;
17818;SDS011;9034;50.284;19.310;2023-07-08T02:12:22;4.63;;;4.15;;
17818;SDS011;9034;50.284;19.310;2023-07-08T02:13:24;7.03;;;6.03;;
17818;SDS011;9034;50.284;19.310;2023-07-08T02:14:27;8.05;;;5.95;;
17818;SDS011;9034;50.284;19.310;2023-07-08T02:15:29;7.07;;;6.22;;
17818;SDS011;9034;50.284;19.310;2023-07-08T02:16:33;8.45;;;5.90;;
17818;SDS011;9034;50.284;19.310;2023-07-08T02:17:35;6.93;;;6.18;;
17818;SDS011;9034;50.284;19.310;2023-07-08T02:18:38;6.38;;;5.78;;
17818;SDS011;9034;50.284;19.310;2023-07-08T02:19:40;4.70;;;4.30;;
17818;SDS011;9034;50.284;19.310;2023-07-08T02:22:26;3.80;;;3.50;;
17818;SDS011;9034;50.284;19.310;2023-07-08T02:23:29;19.25;;;4.32;;
17818;SDS011;9034;50.284;19.310;2023-07-08T02:24:34;12.35;;;4.13;;
17818;SDS011;9034;50.284;19.310;2023-07-08T02:25:38;4.25;;;3.85;;
17818;SDS011;9034;50.284;19.310;2023-07-08T02:26:40;6.18;;;3.55;;
17818;SDS011;9034;50.284;19.310;2023-07-08T02:27:42;5.93;;;4.20;;
17818;SDS011;9034;50.284;19.310;2023-07-08T02:28:44;5.03;;;4.57;;
17818;SDS011;9034;50.284;19.310;2023-07-08T02:29:47;5.32;;;4.80;;
17818;SDS011;9034;50.284;19.310;2023-07-08T02:30:49;5.93;;;5.00;;
17818;SDS011;9034;50.284;19.310;2023-07-08T02:31:53;5.50;;;5.00;;
17818;SDS011;9034;50.284;19.310;2023-07-08T02:32:55;5.55;;;5.03;;
17818;SDS011;9034;50.284;19.310;2023-07-08T02:33:59;6.10;;;5.30;;
17818;SDS011;9034;50.284;19.310;2023-07-08T02:35:03;5.78;;;4.40;;
17818;SDS011;9034;50.284;19.310;2023-07-08T02:36:06;5.97;;;4.20;;
17818;SDS011;9034;50.284;19.310;2023-07-08T02:37:08;6.70;;;5.18;;
17818;SDS011;9034;50.284;19.310;2023-07-08T02:38:09;5.43;;;4.93;;
17818;SDS011;9034;50.284;19.310;2023-07-08T02:39:14;6.43;;;5.78;;
17818;SDS011;9034;50.284;19.310;2023-07-08T02:40:16;5.22;;;4.72;;
17818;SDS011;9034;50.284;19.310;2023-07-08T02:41:20;5.70;;;5.10;;
17818;SDS011;9034;50.284;19.310;2023-07-08T02:42:22;7.13;;;5.60;;
17818;SDS011;9034;50.284;19.310;2023-07-08T02:43:25;7.85;;;5.88;;
17818;SDS011;9034;50.284;19.310;2023-07-08T02:44:27;6.53;;;5.88;;
17818;SDS011;9034;50.284;19.310;2023-07-08T02:45:30;8.18;;;6.60;;
17818;SDS011;9034;50.284;19.310;2023-07-08T02:46:32;5.63;;;5.18;;
17818;SDS011;9034;50.284;19.310;2023-07-08T02:47:35;6.60;;;5.93;;
17818;SDS011;9034;50.284;19.310;2023-07-08T02:48:37;5.82;;;5.32;;
17818;SDS011;9034;50.284;19.310;2023-07-08T02:49:40;10.55;;;5.15;;
17818;SDS011;9034;50.284;19.310;2023-07-08T02:50:41;5.47;;;4.80;;
17818;SDS011;9034;50.284;19.310;2023-07-08T02:51:44;5.32;;;4.82;;
17818;SDS011;9034;50.284;19.310;2023-07-08T02:52:46;7.28;;;5.53;;
17818;SDS011;9034;50.284;19.310;2023-07-08T02:53:49;8.25;;;6.75;;
17818;SDS011;9034;50.284;19.310;2023-07-08T02:54:51;7.70;;;5.97;;
17818;SDS011;9034;50.284;19.310;2023-07-08T02:55:53;6.32;;;5.72;;
17818;SDS011;9034;50.284;19.310;2023-07-08T02:56:57;8.90;;;6.57;;
17818;SDS011;9034;50.284;19.310;2023-07-08T02:57:59;6.10;;;5.50;;
17818;SDS011;9034;50.284;19.310;2023-07-08T02:59:02;7.30;;;5.78;;
17818;SDS011;9034;50.284;19.310;2023-07-08T03:00:04;6.47;;;5.88;;
17818;SDS011;9034;50.284;19.310;2023-07-08T03:01:08;8.73;;;5.65;;
17818;SDS011;9034;50.284;19.310;2023-07-08T03:02:11;6.50;;;5.60;;
17818;SDS011;9034;50.284;19.310;2023-07-08T03:03:13;6.20;;;5.55;;
17818;SDS011;9034;50.284;19.310;2023-07-08T03:04:17;6.45;;;5.65;;
17818;SDS011;9034;50.284;19.310;2023-07-08T03:05:23;6.50;;;5.90;;
17818;SDS011;9034;50.284;19.310;2023-07-08T03:06:25;8.40;;;7.55;;
17818;SDS011;9034;50.284;19.310;2023-07-08T03:07:28;7.82;;;6.53;;
17818;SDS011;9034;50.284;19.310;2023-07-08T03:08:29;5.85;;;5.35;;
17818;SDS011;9034;50.284;19.310;2023-07-08T03:09:32;6.57;;;5.93;;
17818;SDS011;9034;50.284;19.310;2023-07-08T03:10:34;7.13;;;6.40;;
17818;SDS011;9034;50.284;19.310;2023-07-08T03:11:37;7.03;;;6.32;;
17818;SDS011;9034;50.284;19.310;2023-07-08T03:12:41;6.45;;;5.47;;
17818;SDS011;9034;50.284;19.310;2023-07-08T03:13:44;7.07;;;5.90;;
17818;SDS011;9034;50.284;19.310;2023-07-08T03:14:46;7.90;;;6.97;;
17818;SDS011;9034;50.284;19.310;2023-07-08T03:15:50;7.65;;;6.85;;
17818;SDS011;9034;50.284;19.310;2023-07-08T03:16:52;8.00;;;6.60;;
17818;SDS011;9034;50.284;19.310;2023-07-08T03:17:54;7.43;;;6.65;;
17818;SDS011;9034;50.284;19.310;2023-07-08T03:18:59;8.05;;;6.32;;
17818;SDS011;9034;50.284;19.310;2023-07-08T03:20:03;7.63;;;6.15;;
17818;SDS011;9034;50.284;19.310;2023-07-08T03:21:07;9.05;;;6.45;;
17818;SDS011;9034;50.284;19.310;2023-07-08T03:22:10;6.50;;;5.90;;
17818;SDS011;9034;50.284;19.310;2023-07-08T03:23:12;8.25;;;6.45;;
17818;SDS011;9034;50.284;19.310;2023-07-08T03:24:15;6.75;;;5.88;;
17818;SDS011;9034;50.284;19.310;2023-07-08T03:25:20;6.95;;;6.25;;
17818;SDS011;9034;50.284;19.310;2023-07-08T03:26:26;7.40;;;6.70;;
17818;SDS011;9034;50.284;19.310;2023-07-08T03:27:31;7.88;;;6.43;;
17818;SDS011;9034;50.284;19.310;2023-07-08T03:28:35;6.72;;;6.03;;
17818;SDS011;9034;50.284;19.310;2023-07-08T03:29:38;7.35;;;6.57;;
17818;SDS011;9034;50.284;19.310;2023-07-08T03:30:41;7.40;;;6.70;;
17818;SDS011;9034;50.284;19.310;2023-07-08T03:31:45;6.50;;;5.82;;
17818;SDS011;9034;50.284;19.310;2023-07-08T03:32:48;7.10;;;6.40;;
17818;SDS011;9034;50.284;19.310;2023-07-08T03:33:51;7.60;;;6.43;;
17818;SDS011;9034;50.284;19.310;2023-07-08T03:34:53;6.65;;;5.82;;
17818;SDS011;9034;50.284;19.310;2023-07-08T03:35:56;6.97;;;6.05;;
17818;SDS011;9034;50.284;19.310;2023-07-08T03:36:58;9.73;;;6.28;;
17818;SDS011;9034;50.284;19.310;2023-07-08T03:38:02;7.30;;;5.35;;
17818;SDS011;9034;50.284;19.310;2023-07-08T03:39:05;7.13;;;6.45;;
17818;SDS011;9034;50.284;19.310;2023-07-08T03:40:08;7.65;;;6.90;;
17818;SDS011;9034;50.284;19.310;2023-07-08T03:41:11;8.15;;;7.28;;
17818;SDS011;9034;50.284;19.310;2023-07-08T03:42:14;8.75;;;7.85;;
17818;SDS011;9034;50.284;19.310;2023-07-08T03:43:16;10.48;;;8.65;;
17818;SDS011;9034;50.284;19.310;2023-07-08T03:44:20;9.75;;;8.68;;
17818;SDS011;9034;50.284;19.310;2023-07-08T03:45:22;10.27;;;9.02;;
17818;SDS011;9034;50.284;19.310;2023-07-08T03:46:25;11.45;;;7.93;;
17818;SDS011;9034;50.284;19.310;2023-07-08T03:47:27;9.43;;;7.43;;
17818;SDS011;9034;50.284;19.310;2023-07-08T03:48:30;8.07;;;7.28;;
17818;SDS011;9034;50.284;19.310;2023-07-08T03:49:32;8.30;;;7.45;;
17818;SDS011;9034;50.284;19.310;2023-07-08T03:50:35;9.10;;;7.43;;
17818;SDS011;9034;50.284;19.310;2023-07-08T03:51:37;8.50;;;7.78;;
17818;SDS011;9034;50.284;19.310;2023-07-08T03:52:41;8.55;;;7.65;;
17818;SDS011;9034;50.284;19.310;2023-07-08T03:53:43;9.30;;;8.40;;
17818;SDS011;9034;50.284;19.310;2023-07-08T03:54:46;11.25;;;7.40;;
17818;SDS011;9034;50.284;19.310;2023-07-08T03:55:48;10.25;;;8.30;;
17818;SDS011;9034;50.284;19.310;2023-07-08T03:56:51;9.63;;;8.60;;
17818;SDS011;9034;50.284;19.310;2023-07-08T03:57:56;12.90;;;10.07;;
17818;SDS011;9034;50.284;19.310;2023-07-08T03:59:01;10.98;;;9.25;;
17818;SDS011;9034;50.284;19.310;2023-07-08T04:00:07;10.18;;;9.20;;
17818;SDS011;9034;50.284;19.310;2023-07-08T04:01:16;9.80;;;8.80;;
17818;SDS011;9034;50.284;19.310;2023-07-08T04:02:18;10.85;;;9.75;;
17818;SDS011;9034;50.284;19.310;2023-07-08T04:03:21;10.90;;;9.18;;
17818;SDS011;9034;50.284;19.310;2023-07-08T04:04:23;10.40;;;8.95;;
17818;SDS011;9034;50.284;19.310;2023-07-08T04:05:26;11.02;;;9.15;;
17818;SDS011;9034;50.284;19.310;2023-07-08T04:06:28;9.32;;;8.52;;
17818;SDS011;9034;50.284;19.310;2023-07-08T04:07:31;10.25;;;9.20;;
17818;SDS011;9034;50.284;19.310;2023-07-08T04:08:33;11.45;;;9.52;;
17818;SDS011;9034;50.284;19.310;2023-07-08T04:09:36;10.93;;;9.20;;
17818;SDS011;9034;50.284;19.310;2023-07-08T04:10:37;10.63;;;9.57;;
17818;SDS011;9034;50.284;19.310;2023-07-08T04:11:40;10.65;;;9.55;;
17818;SDS011;9034;50.284;19.310;2023-07-08T04:12:42;11.40;;;9.82;;
17818;SDS011;9034;50.284;19.310;2023-07-08T04:13:45;10.60;;;9.27;;
17818;SDS011;9034;50.284;19.310;2023-07-08T04:14:47;11.00;;;9.73;;
17818;SDS011;9034;50.284;19.310;2023-07-08T04:15:52;14.43;;;10.00;;
17818;SDS011;9034;50.284;19.310;2023-07-08T04:16:57;11.38;;;9.77;;
17818;SDS011;9034;50.284;19.310;2023-07-08T04:18:01;10.93;;;9.82;;
17818;SDS011;9034;50.284;19.310;2023-07-08T04:19:03;10.93;;;9.85;;
17818;SDS011;9034;50.284;19.310;2023-07-08T04:20:07;10.20;;;9.20;;
17818;SDS011;9034;50.284;19.310;2023-07-08T04:21:12;12.10;;;9.98;;
17818;SDS011;9034;50.284;19.310;2023-07-08T04:22:18;12.85;;;9.88;;
17818;SDS011;9034;50.284;19.310;2023-07-08T04:23:20;13.57;;;9.32;;
17818;SDS011;9034;50.284;19.310;2023-07-08T04:24:23;10.73;;;8.75;;
17818;SDS011;9034;50.284;19.310;2023-07-08T04:25:25;9.27;;;8.15;;
17818;SDS011;9034;50.284;19.310;2023-07-08T04:26:29;8.68;;;7.28;;
17818;SDS011;9034;50.284;19.310;2023-07-08T04:27:31;10.45;;;7.38;;
17818;SDS011;9034;50.284;19.310;2023-07-08T04:28:34;11.10;;;7.85;;
17818;SDS011;9034;50.284;19.310;2023-07-08T04:29:36;9.90;;;6.57;;
17818;SDS011;9034;50.284;19.310;2023-07-08T04:30:39;9.43;;;6.90;;
17818;SDS011;9034;50.284;19.310;2023-07-08T04:31:44;14.05;;;7.55;;
17818;SDS011;9034;50.284;19.310;2023-07-08T04:32:47;12.15;;;7.70;;
17818;SDS011;9034;50.284;19.310;2023-07-08T04:33:49;9.82;;;7.65;;
17818;SDS011;9034;50.284;19.310;2023-07-08T04:34:52;13.15;;;7.38;;
17818;SDS011;9034;50.284;19.310;2023-07-08T04:35:54;9.95;;;6.90;;
17818;SDS011;9034;50.284;19.310;2023-07-08T04:36:56;8.50;;;6.63;;
17818;SDS011;9034;50.284;19.310;2023-07-08T04:37:58;8.05;;;6.28;;
17818;SDS011;9034;50.284;19.310;2023-07-08T04:39:02;8.48;;;6.22;;
17818;SDS011;9034;50.284;19.310;2023-07-08T04:40:05;7.50;;;6.30;;
17818;SDS011;9034;50.284;19.310;2023-07-08T04:41:10;8.15;;;6.28;;
17818;SDS011;9034;50.284;19.310;2023-07-08T04:43:17;7.05;;;6.15;;
17818;SDS011;9034;50.284;19.310;2023-07-08T04:44:20;8.88;;;6.18;;
17818;SDS011;9034;50.284;19.310;2023-07-08T04:45:21;9.25;;;5.80;;
17818;SDS011;9034;50.284;19.310;2023-07-08T04:46:27;8.50;;;5.97;;
17818;SDS011;9034;50.284;19.310;2023-07-08T04:47:38;8.85;;;5.78;;
17818;SDS011;9034;50.284;19.310;2023-07-08T04:48:40;6.60;;;5.90;;
17818;SDS011;9034;50.284;19.310;2023-07-08T04:49:42;8.65;;;5.75;;
17818;SDS011;9034;50.284;19.310;2023-07-08T04:50:46;6.18;;;5.50;;
17818;SDS011;9034;50.284;19.310;2023-07-08T04:51:49;11.48;;;6.00;;
17818;SDS011;9034;50.284;19.310;2023-07-08T04:52:52;6.35;;;5.50;;
17818;SDS011;9034;50.284;19.310;2023-07-08T04:53:54;8.25;;;5.93;;
17818;SDS011;9034;50.284;19.310;2023-07-08T04:54:57;7.30;;;5.65;;
17818;SDS011;9034;50.284;19.310;2023-07-08T04:55:58;6.22;;;5.63;;
17818;SDS011;9034;50.284;19.310;2023-07-08T04:57:01;7.65;;;5.82;;
17818;SDS011;9034;50.284;19.310;2023-07-08T04:58:04;9.27;;;6.25;;
17818;SDS011;9034;50.284;19.310;2023-07-08T04:59:07;7.75;;;6.35;;
17818;SDS011;9034;50.284;19.310;2023-07-08T05:00:11;7.60;;;6.05;;
17818;SDS011;9034;50.284;19.310;2023-07-08T05:01:17;7.47;;;6.05;;
17818;SDS011;9034;50.284;19.310;2023-07-08T05:02:19;7.38;;;5.82;;
17818;SDS011;9034;50.284;19.310;2023-07-08T05:03:24;7.05;;;6.10;;
17818;SDS011;9034;50.284;19.310;2023-07-08T05:04:26;7.13;;;6.43;;
17818;SDS011;9034;50.284;19.310;2023-07-08T05:05:28;10.52;;;6.32;;
17818;SDS011;9034;50.284;19.310;2023-07-08T05:06:30;6.70;;;6.00;;
17818;SDS011;9034;50.284;19.310;2023-07-08T05:07:33;8.23;;;6.13;;
17818;SDS011;9034;50.284;19.310;2023-07-08T05:08:35;9.07;;;6.80;;
17818;SDS011;9034;50.284;19.310;2023-07-08T05:09:38;9.18;;;6.63;;
17818;SDS011;9034;50.284;19.310;2023-07-08T05:10:40;10.77;;;6.55;;
17818;SDS011;9034;50.284;19.310;2023-07-08T05:11:43;8.85;;;6.22;;
17818;SDS011;9034;50.284;19.310;2023-07-08T05:12:45;8.43;;;6.55;;
17818;SDS011;9034;50.284;19.310;2023-07-08T05:13:49;10.25;;;6.18;;
17818;SDS011;9034;50.284;19.310;2023-07-08T05:14:51;9.60;;;6.90;;
17818;SDS011;9034;50.284;19.310;2023-07-08T05:15:54;9.60;;;6.28;;
17818;SDS011;9034;50.284;19.310;2023-07-08T05:16:56;11.65;;;7.88;;
17818;SDS011;9034;50.284;19.310;2023-07-08T05:17:59;16.05;;;8.55;;
17818;SDS011;9034;50.284;19.310;2023-07-08T05:19:02;12.05;;;7.35;;
17818;SDS011;9034;50.284;19.310;2023-07-08T05:20:06;8.63;;;7.75;;
17818;SDS011;9034;50.284;19.310;2023-07-08T05:21:09;15.93;;;9.23;;
17818;SDS011;9034;50.284;19.310;2023-07-08T05:22:12;10.25;;;7.65;;
17818;SDS011;9034;50.284;19.310;2023-07-08T05:23:14;12.60;;;7.90;;
17818;SDS011;9034;50.284;19.310;2023-07-08T05:24:19;13.82;;;8.93;;
17818;SDS011;9034;50.284;19.310;2023-07-08T05:25:20;16.20;;;9.63;;
17818;SDS011;9034;50.284;19.310;2023-07-08T05:26:23;8.77;;;7.85;;
17818;SDS011;9034;50.284;19.310;2023-07-08T05:27:25;12.97;;;9.03;;
17818;SDS011;9034;50.284;19.310;2023-07-08T05:28:28;11.40;;;9.03;;
17818;SDS011;9034;50.284;19.310;2023-07-08T05:29:30;16.67;;;9.83;;
17818;SDS011;9034;50.284;19.310;2023-07-08T05:30:33;14.87;;;9.23;;
17818;SDS011;9034;50.284;19.310;2023-07-08T05:31:35;9.47;;;8.47;;
17818;SDS011;9034;50.284;19.310;2023-07-08T05:32:48;12.30;;;8.17;;
17818;SDS011;9034;50.284;19.310;2023-07-08T05:33:50;12.03;;;8.70;;
17818;SDS011;9034;50.284;19.310;2023-07-08T05:34:55;11.00;;;8.50;;
17818;SDS011;9034;50.284;19.310;2023-07-08T05:35:56;15.00;;;9.27;;
17818;SDS011;9034;50.284;19.310;2023-07-08T05:37:00;12.23;;;8.17;;
17818;SDS011;9034;50.284;19.310;2023-07-08T05:38:02;11.80;;;8.27;;
17818;SDS011;9034;50.284;19.310;2023-07-08T05:39:05;10.20;;;7.97;;
17818;SDS011;9034;50.284;19.310;2023-07-08T05:40:07;10.47;;;8.20;;
17818;SDS011;9034;50.284;19.310;2023-07-08T05:41:11;10.13;;;8.30;;
17818;SDS011;9034;50.284;19.310;2023-07-08T05:42:14;12.37;;;9.53;;
17818;SDS011;9034;50.284;19.310;2023-07-08T05:43:16;12.50;;;9.27;;
17818;SDS011;9034;50.284;19.310;2023-07-08T05:44:18;13.70;;;8.83;;
17818;SDS011;9034;50.284;19.310;2023-07-08T05:45:21;9.93;;;8.77;;
17818;SDS011;9034;50.284;19.310;2023-07-08T05:46:23;16.97;;;8.97;;
17818;SDS011;9034;50.284;19.310;2023-07-08T05:47:26;15.57;;;9.50;;
17818;SDS011;9034;50.284;19.310;2023-07-08T05:48:28;12.30;;;8.50;;
17818;SDS011;9034;50.284;19.310;2023-07-08T05:49:31;11.63;;;8.80;;
17818;SDS011;9034;50.284;19.310;2023-07-08T05:50:34;11.07;;;8.20;;
17818;SDS011;9034;50.284;19.310;2023-07-08T05:51:37;11.23;;;8.47;;
17818;SDS011;9034;50.284;19.310;2023-07-08T05:52:39;11.83;;;7.80;;
17818;SDS011;9034;50.284;19.310;2023-07-08T05:53:42;12.03;;;7.97;;
17818;SDS011;9034;50.284;19.310;2023-07-08T05:54:44;13.53;;;8.40;;
17818;SDS011;9034;50.284;19.310;2023-07-08T05:55:47;10.60;;;7.57;;
17818;SDS011;9034;50.284;19.310;2023-07-08T05:56:49;9.77;;;7.63;;
17818;SDS011;9034;50.284;19.310;2023-07-08T05:57:52;9.57;;;7.50;;
17818;SDS011;9034;50.284;19.310;2023-07-08T05:58:54;11.03;;;7.80;;
17818;SDS011;9034;50.284;19.310;2023-07-08T05:59:56;10.50;;;7.97;;
17818;SDS011;9034;50.284;19.310;2023-07-08T06:00:58;12.23;;;8.57;;
17818;SDS011;9034;50.284;19.310;2023-07-08T06:02:02;9.53;;;7.57;;
17818;SDS011;9034;50.284;19.310;2023-07-08T06:03:05;9.93;;;7.77;;
17818;SDS011;9034;50.284;19.310;2023-07-08T06:04:07;9.47;;;7.40;;
17818;SDS011;9034;50.284;19.310;2023-07-08T06:05:09;24.00;;;9.27;;
17818;SDS011;9034;50.284;19.310;2023-07-08T06:06:14;16.43;;;8.70;;
17818;SDS011;9034;50.284;19.310;2023-07-08T06:07:15;12.10;;;8.07;;
17818;SDS011;9034;50.284;19.310;2023-07-08T06:08:19;16.93;;;8.07;;
17818;SDS011;9034;50.284;19.310;2023-07-08T06:09:21;15.80;;;8.03;;
17818;SDS011;9034;50.284;19.310;2023-07-08T06:10:24;18.30;;;9.20;;
17818;SDS011;9034;50.284;19.310;2023-07-08T06:11:26;18.90;;;8.77;;
17818;SDS011;9034;50.284;19.310;2023-07-08T06:12:30;22.17;;;8.50;;
17818;SDS011;9034;50.284;19.310;2023-07-08T06:13:32;16.43;;;7.77;;
17818;SDS011;9034;50.284;19.310;2023-07-08T06:14:35;23.07;;;9.13;;
17818;SDS011;9034;50.284;19.310;2023-07-08T06:15:36;12.27;;;8.20;;
17818;SDS011;9034;50.284;19.310;2023-07-08T06:16:39;11.80;;;7.63;;
17818;SDS011;9034;50.284;19.310;2023-07-08T06:17:43;13.23;;;8.13;;
17818;SDS011;9034;50.284;19.310;2023-07-08T06:18:45;22.57;;;9.47;;
17818;SDS011;9034;50.284;19.310;2023-07-08T06:19:47;18.97;;;8.47;;
17818;SDS011;9034;50.284;19.310;2023-07-08T06:20:51;26.70;;;9.53;;
17818;SDS011;9034;50.284;19.310;2023-07-08T06:21:54;13.63;;;8.10;;
17818;SDS011;9034;50.284;19.310;2023-07-08T06:23:14;10.80;;;7.63;;